Tom Frazier — WDD4376 — position and weather

sailwx.info

Track history (hours):
 
Tides and Currents Weather Stations Pressure Air Temp Water Temp Dewpoint Dewpoint Depression Visibility Wind Speed Wind Dir Waves Ship Positions

Tom Frazier

Owner: American Commercial Lines LLC, Jeffersonville, IN. More information available from US FCC via Universal Licensing System and Coast Guard Vessel Documentation Center.

Last reported at 2017-Jan-15 19:22 UTC. Time now 2017-Jan-19 08:53 UTC.
Position N 38°53' W 090°11'.

Length 48 m; draft 2.9 m.

Type: Tow > 200 m length. MMSI: 367143910.

Date/timePositionNaut miles runAvg speedWind from/ knotsBaromVisibWave heightAir tempDewpointWater temp
2017-Jan-15 19:22N 38°53' W 090°11'3 4.2
2017-Jan-15 18:33N 38°55' W 090°14'0 0.0
2017-Jan-15 17:33N 38°55' W 090°14'1 1.0
2017-Jan-15 16:33N 38°55' W 090°15'6 5.7
2017-Jan-15 15:33N 38°57' W 090°22'6 5.9
2017-Jan-15 14:33N 38°58' W 090°30'  
2017-Jan-09 17:28N 38°58' W 090°33'3 3.6
2017-Jan-09 16:33N 38°58' W 090°29'4 4.2
2017-Jan-09 15:33N 38°58' W 090°23'3 3.0
2017-Jan-09 14:33N 38°56' W 090°20'2 2.4
2017-Jan-09 13:33N 38°55' W 090°17'4 2.0
2017-Jan-09 11:32N 38°54' W 090°12'  
Track history (hours):
 
Tides and Currents Weather Stations Pressure Air Temp Water Temp Dewpoint Dewpoint Depression Visibility Wind Speed Wind Dir Waves Ship Positions

Tom Frazier

Owner: American Commercial Lines LLC, Jeffersonville, IN. More information available from US FCC via Universal Licensing System and Coast Guard Vessel Documentation Center.

Last reported at 2017-Jan-15 19:22 UTC. Time now 2017-Jan-19 08:53 UTC.
Position N 38°53' W 090°11'.

Length 48 m; draft 2.9 m.

Type: Tow > 200 m length. MMSI: 367143910.

Date/timePositionNaut miles runAvg speedWind from/ knotsBaromVisibWave heightAir tempDewpointWater temp
2017-Jan-15 19:22N 38°53' W 090°11'3 4.2
2017-Jan-15 18:33N 38°55' W 090°14'0 0.0
2017-Jan-15 17:33N 38°55' W 090°14'1 1.0
2017-Jan-15 16:33N 38°55' W 090°15'6 5.7
2017-Jan-15 15:33N 38°57' W 090°22'6 5.9
2017-Jan-15 14:33N 38°58' W 090°30'  
2017-Jan-09 17:28N 38°58' W 090°33'3 3.6
2017-Jan-09 16:33N 38°58' W 090°29'4 4.2
2017-Jan-09 15:33N 38°58' W 090°23'3 3.0
2017-Jan-09 14:33N 38°56' W 090°20'2 2.4
2017-Jan-09 13:33N 38°55' W 090°17'4 2.0
2017-Jan-09 11:32N 38°54' W 090°12'  

Dump ship's entire track history